CheckWX is a tool to help pilots better visualize weather data.  It is not intended as a substitute for an official pre-flight weather briefing.

09:29:43 UTC

EHFS METAR
Vlissingen
Vlissingen, The Netherlands
Current

35 mins ago

EHFS 310855Z AUTO 06015KT 030V100 9999 NCD 19/06 Q1023
Observed
May-31 @ 08:55 UTC
Wind
  • 060° at 15 KTS
Visibility
10,000+ meters
Flight Rules
VFR
Cloud Levels
  • Clear skies
Temperature
19°C / 66°F
Dewpoint
C / 43°F
Humidity
43%
Altimeter
30.21" Hg
Pressure
1022.92 hPa
Previous

1 hour ago

EHFS 310825Z AUTO 06013KT 020V110 9999 NCD 19/07 Q1023
Observed
May-31 @ 08:25 UTC
Wind
  • 060° at 13 KTS
Visibility
10,000+ meters
Flight Rules
VFR
Cloud Levels
  • Clear skies
Temperature
19°C / 66°F
Dewpoint
C / 45°F
Humidity
46%
Altimeter
30.21" Hg
Pressure
1022.92 hPa
Previous

2 hours ago

EHFS 310755Z AUTO 07011KT 030V100 9999 NCD 19/06 Q1023
Observed
May-31 @ 07:55 UTC
Wind
  • 070° at 11 KTS
Visibility
10,000+ meters
Flight Rules
VFR
Cloud Levels
  • Clear skies
Temperature
19°C / 66°F
Dewpoint
C / 43°F
Humidity
43%
Altimeter
30.21" Hg
Pressure
1022.92 hPa